sensor_id;sensor_type;location;lat;lon;timestamp;temperature;humidity
13049;DHT22;6591;51.446;5.404;2023-02-01T00:00:59;9.20;99.90
13049;DHT22;6591;51.446;5.404;2023-02-01T00:03:32;8.00;99.90
13049;DHT22;6591;51.446;5.404;2023-02-01T00:05:59;8.00;99.90
13049;DHT22;6591;51.446;5.404;2023-02-01T00:08:27;7.50;99.90
13049;DHT22;6591;51.446;5.404;2023-02-01T00:10:59;7.40;99.90
13049;DHT22;6591;51.446;5.404;2023-02-01T00:13:31;7.40;99.90
13049;DHT22;6591;51.446;5.404;2023-02-01T00:16:08;7.30;99.90
13049;DHT22;6591;51.446;5.404;2023-02-01T00:18:37;7.20;99.90
13049;DHT22;6591;51.446;5.404;2023-02-01T00:21:04;7.20;99.90
13049;DHT22;6591;51.446;5.404;2023-02-01T00:23:33;7.20;99.90
13049;DHT22;6591;51.446;5.404;2023-02-01T00:26:03;8.30;99.90
13049;DHT22;6591;51.446;5.404;2023-02-01T00:28:32;7.10;99.90
13049;DHT22;6591;51.446;5.404;2023-02-01T00:31:01;7.10;99.90
13049;DHT22;6591;51.446;5.404;2023-02-01T00:33:31;7.50;99.90
13049;DHT22;6591;51.446;5.404;2023-02-01T00:36:02;7.10;99.90
13049;DHT22;6591;51.446;5.404;2023-02-01T00:38:32;7.00;99.90
13049;DHT22;6591;51.446;5.404;2023-02-01T00:43:33;7.00;99.90
13049;DHT22;6591;51.446;5.404;2023-02-01T00:46:01;7.00;99.90
13049;DHT22;6591;51.446;5.404;2023-02-01T00:48:29;8.10;99.90
13049;DHT22;6591;51.446;5.404;2023-02-01T00:51:01;6.90;99.90
13049;DHT22;6591;51.446;5.404;2023-02-01T00:53:30;9.00;99.90
13049;DHT22;6591;51.446;5.404;2023-02-01T00:55:58;6.80;99.90
13049;DHT22;6591;51.446;5.404;2023-02-01T00:58:26;8.60;99.90
13049;DHT22;6591;51.446;5.404;2023-02-01T01:03:31;6.80;99.90
13049;DHT22;6591;51.446;5.404;2023-02-01T01:06:05;8.70;99.90
13049;DHT22;6591;51.446;5.404;2023-02-01T01:08:38;6.70;99.90
13049;DHT22;6591;51.446;5.404;2023-02-01T01:11:11;8.60;99.90
13049;DHT22;6591;51.446;5.404;2023-02-01T01:13:39;6.70;99.90
13049;DHT22;6591;51.446;5.404;2023-02-01T01:16:10;6.70;99.90
13049;DHT22;6591;51.446;5.404;2023-02-01T01:18:38;8.50;99.90
13049;DHT22;6591;51.446;5.404;2023-02-01T01:21:07;6.80;99.90
13049;DHT22;6591;51.446;5.404;2023-02-01T01:23:36;8.20;99.90
13049;DHT22;6591;51.446;5.404;2023-02-01T01:26:12;7.60;99.90
13049;DHT22;6591;51.446;5.404;2023-02-01T01:28:45;6.60;99.90
13049;DHT22;6591;51.446;5.404;2023-02-01T01:31:14;6.60;99.90
13049;DHT22;6591;51.446;5.404;2023-02-01T01:33:55;6.50;99.90
13049;DHT22;6591;51.446;5.404;2023-02-01T01:36:25;6.50;99.90
13049;DHT22;6591;51.446;5.404;2023-02-01T01:38:53;7.80;99.90
13049;DHT22;6591;51.446;5.404;2023-02-01T01:41:23;6.40;99.90
13049;DHT22;6591;51.446;5.404;2023-02-01T01:44:05;6.40;99.90
13049;DHT22;6591;51.446;5.404;2023-02-01T01:46:52;6.40;99.90
13049;DHT22;6591;51.446;5.404;2023-02-01T01:49:25;6.50;99.90
13049;DHT22;6591;51.446;5.404;2023-02-01T01:51:58;8.30;99.90
13049;DHT22;6591;51.446;5.404;2023-02-01T01:57:16;6.30;99.90
13049;DHT22;6591;51.446;5.404;2023-02-01T01:59:53;6.10;99.90
13049;DHT22;6591;51.446;5.404;2023-02-01T02:03:07;6.20;99.90
13049;DHT22;6591;51.446;5.404;2023-02-01T02:05:51;7.40;99.90
13049;DHT22;6591;51.446;5.404;2023-02-01T02:08:21;7.80;99.90
13049;DHT22;6591;51.446;5.404;2023-02-01T02:10:51;6.10;99.90
13049;DHT22;6591;51.446;5.404;2023-02-01T02:13:31;6.10;99.90
13049;DHT22;6591;51.446;5.404;2023-02-01T02:25:58;6.10;99.90
13049;DHT22;6591;51.446;5.404;2023-02-01T02:35:36;6.10;99.90
13049;DHT22;6591;51.446;5.404;2023-02-01T02:44:47;6.10;99.90
13049;DHT22;6591;51.446;5.404;2023-02-01T02:48:11;6.10;99.90
13049;DHT22;6591;51.446;5.404;2023-02-01T02:50:59;6.10;99.90
13049;DHT22;6591;51.446;5.404;2023-02-01T02:54:13;6.10;99.90
13049;DHT22;6591;51.446;5.404;2023-02-01T02:57:04;6.20;99.90
13049;DHT22;6591;51.446;5.404;2023-02-01T02:59:57;6.20;99.90
13049;DHT22;6591;51.446;5.404;2023-02-01T03:02:48;6.20;99.90
13049;DHT22;6591;51.446;5.404;2023-02-01T03:05:36;6.30;99.90
13049;DHT22;6591;51.446;5.404;2023-02-01T03:08:24;6.30;99.90
13049;DHT22;6591;51.446;5.404;2023-02-01T03:11:00;6.30;99.90
13049;DHT22;6591;51.446;5.404;2023-02-01T03:13:58;6.40;99.90
13049;DHT22;6591;51.446;5.404;2023-02-01T03:19:22;7.70;99.90
13049;DHT22;6591;51.446;5.404;2023-02-01T03:21:59;6.40;99.90
13049;DHT22;6591;51.446;5.404;2023-02-01T03:24:41;6.40;99.90
13049;DHT22;6591;51.446;5.404;2023-02-01T03:27:38;6.40;99.90
13049;DHT22;6591;51.446;5.404;2023-02-01T03:30:25;8.60;99.90
13049;DHT22;6591;51.446;5.404;2023-02-01T03:32:58;8.50;99.90
13049;DHT22;6591;51.446;5.404;2023-02-01T03:38:13;6.40;99.90
13049;DHT22;6591;51.446;5.404;2023-02-01T03:41:18;6.50;99.90
13049;DHT22;6591;51.446;5.404;2023-02-01T03:46:35;6.60;99.90
13049;DHT22;6591;51.446;5.404;2023-02-01T03:49:11;6.60;99.90
13049;DHT22;6591;51.446;5.404;2023-02-01T03:51:46;6.60;99.90
13049;DHT22;6591;51.446;5.404;2023-02-01T03:54:18;6.60;99.90
13049;DHT22;6591;51.446;5.404;2023-02-01T03:56:47;7.50;99.90
13049;DHT22;6591;51.446;5.404;2023-02-01T03:59:15;6.60;99.90
13049;DHT22;6591;51.446;5.404;2023-02-01T04:01:42;6.60;99.90
13049;DHT22;6591;51.446;5.404;2023-02-01T04:04:10;8.70;99.90
13049;DHT22;6591;51.446;5.404;2023-02-01T04:06:38;8.60;99.90
13049;DHT22;6591;51.446;5.404;2023-02-01T04:09:05;6.60;99.90
13049;DHT22;6591;51.446;5.404;2023-02-01T04:11:32;6.70;99.90
13049;DHT22;6591;51.446;5.404;2023-02-01T04:13:59;6.70;99.90
13049;DHT22;6591;51.446;5.404;2023-02-01T04:16:31;6.70;99.90
13049;DHT22;6591;51.446;5.404;2023-02-01T04:18:59;6.70;99.90
13049;DHT22;6591;51.446;5.404;2023-02-01T04:21:27;6.70;99.90
13049;DHT22;6591;51.446;5.404;2023-02-01T04:23:54;6.70;99.90
13049;DHT22;6591;51.446;5.404;2023-02-01T04:26:21;8.10;99.90
13049;DHT22;6591;51.446;5.404;2023-02-01T04:28:48;6.70;99.90
13049;DHT22;6591;51.446;5.404;2023-02-01T04:31:16;6.70;99.90
13049;DHT22;6591;51.446;5.404;2023-02-01T04:33:44;6.70;99.90
13049;DHT22;6591;51.446;5.404;2023-02-01T04:36:11;6.70;99.90
13049;DHT22;6591;51.446;5.404;2023-02-01T04:38:38;8.00;99.90
13049;DHT22;6591;51.446;5.404;2023-02-01T04:41:05;6.70;99.90
13049;DHT22;6591;51.446;5.404;2023-02-01T04:43:32;8.10;99.90
13049;DHT22;6591;51.446;5.404;2023-02-01T04:45:59;6.80;99.90
13049;DHT22;6591;51.446;5.404;2023-02-01T04:48:26;7.70;99.90
13049;DHT22;6591;51.446;5.404;2023-02-01T04:50:54;6.90;99.90
13049;DHT22;6591;51.446;5.404;2023-02-01T04:53:21;8.40;99.90
13049;DHT22;6591;51.446;5.404;2023-02-01T04:55:48;6.70;99.90
13049;DHT22;6591;51.446;5.404;2023-02-01T04:58:16;8.70;99.90
13049;DHT22;6591;51.446;5.404;2023-02-01T05:00:43;8.80;99.90
13049;DHT22;6591;51.446;5.404;2023-02-01T05:03:11;6.70;99.90
13049;DHT22;6591;51.446;5.404;2023-02-01T05:05:38;6.70;99.90
13049;DHT22;6591;51.446;5.404;2023-02-01T05:08:06;6.70;99.90
13049;DHT22;6591;51.446;5.404;2023-02-01T05:10:33;8.40;99.90
13049;DHT22;6591;51.446;5.404;2023-02-01T05:13:00;6.70;99.90
13049;DHT22;6591;51.446;5.404;2023-02-01T05:15:45;7.60;99.90
13049;DHT22;6591;51.446;5.404;2023-02-01T05:18:13;6.70;99.90
13049;DHT22;6591;51.446;5.404;2023-02-01T05:20:40;6.70;99.90
13049;DHT22;6591;51.446;5.404;2023-02-01T05:23:07;6.70;99.90
13049;DHT22;6591;51.446;5.404;2023-02-01T05:25:34;6.80;99.90
13049;DHT22;6591;51.446;5.404;2023-02-01T05:28:01;6.60;99.90
13049;DHT22;6591;51.446;5.404;2023-02-01T05:30:29;8.50;99.90
13049;DHT22;6591;51.446;5.404;2023-02-01T05:32:56;6.90;99.90
13049;DHT22;6591;51.446;5.404;2023-02-01T05:35:23;6.70;99.90
13049;DHT22;6591;51.446;5.404;2023-02-01T05:37:50;6.70;99.90
13049;DHT22;6591;51.446;5.404;2023-02-01T05:40:17;6.70;99.90
13049;DHT22;6591;51.446;5.404;2023-02-01T05:42:45;6.70;99.90
13049;DHT22;6591;51.446;5.404;2023-02-01T05:45:12;6.70;99.90
13049;DHT22;6591;51.446;5.404;2023-02-01T05:47:39;6.70;99.90
13049;DHT22;6591;51.446;5.404;2023-02-01T05:50:07;6.70;99.90
13049;DHT22;6591;51.446;5.404;2023-02-01T05:52:34;6.80;99.90
13049;DHT22;6591;51.446;5.404;2023-02-01T05:55:01;6.80;99.90
13049;DHT22;6591;51.446;5.404;2023-02-01T05:57:28;6.80;99.90
13049;DHT22;6591;51.446;5.404;2023-02-01T05:59:56;6.90;99.90
13049;DHT22;6591;51.446;5.404;2023-02-01T06:02:25;8.80;99.90
13049;DHT22;6591;51.446;5.404;2023-02-01T06:04:53;6.90;99.90
13049;DHT22;6591;51.446;5.404;2023-02-01T06:07:20;7.00;99.90
13049;DHT22;6591;51.446;5.404;2023-02-01T06:09:46;7.00;99.90
13049;DHT22;6591;51.446;5.404;2023-02-01T06:12:13;7.00;99.90
13049;DHT22;6591;51.446;5.404;2023-02-01T06:14:40;7.10;99.90
13049;DHT22;6591;51.446;5.404;2023-02-01T06:17:09;7.10;99.90
13049;DHT22;6591;51.446;5.404;2023-02-01T06:19:36;7.10;99.90
13049;DHT22;6591;51.446;5.404;2023-02-01T06:22:03;7.10;99.90
13049;DHT22;6591;51.446;5.404;2023-02-01T06:24:32;8.00;99.90
13049;DHT22;6591;51.446;5.404;2023-02-01T06:26:59;7.20;99.90
13049;DHT22;6591;51.446;5.404;2023-02-01T06:29:26;7.90;99.90
13049;DHT22;6591;51.446;5.404;2023-02-01T06:31:53;7.20;99.90
13049;DHT22;6591;51.446;5.404;2023-02-01T06:34:21;7.20;99.90
13049;DHT22;6591;51.446;5.404;2023-02-01T06:36:50;7.20;99.90
13049;DHT22;6591;51.446;5.404;2023-02-01T06:39:17;9.00;99.90
13049;DHT22;6591;51.446;5.404;2023-02-01T06:41:47;7.30;99.90
13049;DHT22;6591;51.446;5.404;2023-02-01T06:44:16;7.30;99.90
13049;DHT22;6591;51.446;5.404;2023-02-01T06:46:43;7.30;99.90
13049;DHT22;6591;51.446;5.404;2023-02-01T06:49:10;7.30;99.90
13049;DHT22;6591;51.446;5.404;2023-02-01T06:51:37;7.30;99.90
13049;DHT22;6591;51.446;5.404;2023-02-01T06:54:04;7.30;99.90
13049;DHT22;6591;51.446;5.404;2023-02-01T06:56:31;7.10;99.90
13049;DHT22;6591;51.446;5.404;2023-02-01T06:58:58;7.40;99.90
13049;DHT22;6591;51.446;5.404;2023-02-01T07:01:27;8.90;99.90
13049;DHT22;6591;51.446;5.404;2023-02-01T07:03:54;7.50;99.90
13049;DHT22;6591;51.446;5.404;2023-02-01T07:06:21;7.80;99.90
13049;DHT22;6591;51.446;5.404;2023-02-01T07:08:48;7.60;99.90
13049;DHT22;6591;51.446;5.404;2023-02-01T07:11:17;7.60;99.90
13049;DHT22;6591;51.446;5.404;2023-02-01T07:13:45;7.60;99.90
13049;DHT22;6591;51.446;5.404;2023-02-01T07:16:15;7.60;99.90
13049;DHT22;6591;51.446;5.404;2023-02-01T07:18:44;7.60;99.90
13049;DHT22;6591;51.446;5.404;2023-02-01T07:21:12;7.60;99.90
13049;DHT22;6591;51.446;5.404;2023-02-01T07:23:39;7.60;99.90
13049;DHT22;6591;51.446;5.404;2023-02-01T07:26:09;7.70;99.90
13049;DHT22;6591;51.446;5.404;2023-02-01T07:28:41;7.60;99.90
13049;DHT22;6591;51.446;5.404;2023-02-01T07:31:11;7.60;99.90
13049;DHT22;6591;51.446;5.404;2023-02-01T07:33:42;7.60;99.90
13049;DHT22;6591;51.446;5.404;2023-02-01T07:36:12;7.60;99.90
13049;DHT22;6591;51.446;5.404;2023-02-01T07:38:40;10.00;99.90
13049;DHT22;6591;51.446;5.404;2023-02-01T07:41:08;7.60;99.90
13049;DHT22;6591;51.446;5.404;2023-02-01T07:43:36;8.50;99.90
13049;DHT22;6591;51.446;5.404;2023-02-01T07:46:04;9.90;99.90
13049;DHT22;6591;51.446;5.404;2023-02-01T07:48:32;7.60;99.90
13049;DHT22;6591;51.446;5.404;2023-02-01T07:51:08;7.60;99.90
13049;DHT22;6591;51.446;5.404;2023-02-01T07:53:38;7.60;99.90
13049;DHT22;6591;51.446;5.404;2023-02-01T07:56:17;7.60;99.90
13049;DHT22;6591;51.446;5.404;2023-02-01T07:58:50;7.60;99.90
13049;DHT22;6591;51.446;5.404;2023-02-01T08:01:21;7.60;99.90
13049;DHT22;6591;51.446;5.404;2023-02-01T08:03:58;7.60;99.90
13049;DHT22;6591;51.446;5.404;2023-02-01T08:06:32;7.60;99.90
13049;DHT22;6591;51.446;5.404;2023-02-01T08:09:01;7.60;99.90
13049;DHT22;6591;51.446;5.404;2023-02-01T08:11:29;7.60;99.90
13049;DHT22;6591;51.446;5.404;2023-02-01T08:13:58;7.70;99.90
13049;DHT22;6591;51.446;5.404;2023-02-01T08:16:25;9.90;99.90
13049;DHT22;6591;51.446;5.404;2023-02-01T08:18:53;5.60;99.90
13049;DHT22;6591;51.446;5.404;2023-02-01T08:21:25;7.80;99.90
13049;DHT22;6591;51.446;5.404;2023-02-01T08:24:08;7.90;99.90
13049;DHT22;6591;51.446;5.404;2023-02-01T08:26:35;7.90;99.90
13049;DHT22;6591;51.446;5.404;2023-02-01T08:29:04;8.00;99.90
13049;DHT22;6591;51.446;5.404;2023-02-01T08:31:33;8.10;99.90
13049;DHT22;6591;51.446;5.404;2023-02-01T08:34:01;10.00;99.90
13049;DHT22;6591;51.446;5.404;2023-02-01T08:36:31;8.20;99.90
13049;DHT22;6591;51.446;5.404;2023-02-01T08:38:59;8.30;99.90
13049;DHT22;6591;51.446;5.404;2023-02-01T08:41:28;8.30;99.90
13049;DHT22;6591;51.446;5.404;2023-02-01T08:43:57;9.00;99.90
13049;DHT22;6591;51.446;5.404;2023-02-01T08:46:24;8.50;99.90
13049;DHT22;6591;51.446;5.404;2023-02-01T08:48:52;8.60;99.90
13049;DHT22;6591;51.446;5.404;2023-02-01T08:51:20;8.70;99.90
13049;DHT22;6591;51.446;5.404;2023-02-01T08:53:48;10.70;99.90
13049;DHT22;6591;51.446;5.404;2023-02-01T08:56:17;10.30;99.90
13049;DHT22;6591;51.446;5.404;2023-02-01T08:58:45;9.00;99.90
13049;DHT22;6591;51.446;5.404;2023-02-01T09:01:16;11.10;99.90
13049;DHT22;6591;51.446;5.404;2023-02-01T09:03:44;9.20;99.90
13049;DHT22;6591;51.446;5.404;2023-02-01T09:06:13;11.30;99.90
13049;DHT22;6591;51.446;5.404;2023-02-01T09:08:42;9.30;99.90
13049;DHT22;6591;51.446;5.404;2023-02-01T09:11:15;9.30;99.90
13049;DHT22;6591;51.446;5.404;2023-02-01T09:13:44;10.40;99.90
13049;DHT22;6591;51.446;5.404;2023-02-01T09:16:12;10.60;99.90
13049;DHT22;6591;51.446;5.404;2023-02-01T09:18:39;9.70;99.90
13049;DHT22;6591;51.446;5.404;2023-02-01T09:21:22;9.70;99.90
13049;DHT22;6591;51.446;5.404;2023-02-01T09:23:51;10.20;99.90
13049;DHT22;6591;51.446;5.404;2023-02-01T09:26:18;9.40;99.90
13049;DHT22;6591;51.446;5.404;2023-02-01T09:28:57;9.40;99.90
13049;DHT22;6591;51.446;5.404;2023-02-01T09:31:25;9.50;99.90
13049;DHT22;6591;51.446;5.404;2023-02-01T09:33:52;9.50;99.90
13049;DHT22;6591;51.446;5.404;2023-02-01T09:36:19;10.20;99.90
13049;DHT22;6591;51.446;5.404;2023-02-01T09:38:46;9.70;99.90
13049;DHT22;6591;51.446;5.404;2023-02-01T09:47:21;9.70;99.90
13049;DHT22;6591;51.446;5.404;2023-02-01T09:52:49;9.80;99.90
13049;DHT22;6591;51.446;5.404;2023-02-01T10:01:15;9.80;99.90
13049;DHT22;6591;51.446;5.404;2023-02-01T10:03:46;9.90;99.90
13049;DHT22;6591;51.446;5.404;2023-02-01T10:12:25;10.00;99.90
13049;DHT22;6591;51.446;5.404;2023-02-01T10:15:24;10.00;99.90
13049;DHT22;6591;51.446;5.404;2023-02-01T10:21:01;10.20;99.90
13049;DHT22;6591;51.446;5.404;2023-02-01T10:24:02;10.30;99.90
13049;DHT22;6591;51.446;5.404;2023-02-01T10:27:20;10.40;99.90
13049;DHT22;6591;51.446;5.404;2023-02-01T10:29:54;10.50;99.90
13049;DHT22;6591;51.446;5.404;2023-02-01T10:32:34;10.60;99.90
13049;DHT22;6591;51.446;5.404;2023-02-01T10:37:44;10.70;99.90
13049;DHT22;6591;51.446;5.404;2023-02-01T10:40:25;12.70;99.90
13049;DHT22;6591;51.446;5.404;2023-02-01T10:42:56;10.90;99.90
13049;DHT22;6591;51.446;5.404;2023-02-01T10:45:28;11.70;99.90
13049;DHT22;6591;51.446;5.404;2023-02-01T10:48:00;11.00;99.90
13049;DHT22;6591;51.446;5.404;2023-02-01T10:54:08;11.00;99.90
13049;DHT22;6591;51.446;5.404;2023-02-01T10:56:49;11.00;99.90
13049;DHT22;6591;51.446;5.404;2023-02-01T10:59:23;11.00;99.90
13049;DHT22;6591;51.446;5.404;2023-02-01T11:01:59;12.80;99.90
13049;DHT22;6591;51.446;5.404;2023-02-01T11:04:33;12.40;99.90
13049;DHT22;6591;51.446;5.404;2023-02-01T11:07:19;12.60;99.90
13049;DHT22;6591;51.446;5.404;2023-02-01T11:09:53;11.20;99.90
13049;DHT22;6591;51.446;5.404;2023-02-01T11:15:21;12.90;99.90
13049;DHT22;6591;51.446;5.404;2023-02-01T11:17:51;11.10;99.90
13049;DHT22;6591;51.446;5.404;2023-02-01T11:20:39;11.10;99.90
13049;DHT22;6591;51.446;5.404;2023-02-01T11:23:17;11.10;99.90
13049;DHT22;6591;51.446;5.404;2023-02-01T11:28:22;12.90;99.90
13049;DHT22;6591;51.446;5.404;2023-02-01T11:30:54;12.40;99.90
13049;DHT22;6591;51.446;5.404;2023-02-01T11:33:30;12.40;99.90
13049;DHT22;6591;51.446;5.404;2023-02-01T11:36:09;11.10;99.90
13049;DHT22;6591;51.446;5.404;2023-02-01T11:39:07;11.10;99.90
13049;DHT22;6591;51.446;5.404;2023-02-01T11:47:52;11.10;99.90
13049;DHT22;6591;51.446;5.404;2023-02-01T11:50:30;12.40;99.90
13049;DHT22;6591;51.446;5.404;2023-02-01T11:53:23;12.10;99.90
13049;DHT22;6591;51.446;5.404;2023-02-01T11:59:02;11.20;99.90
13049;DHT22;6591;51.446;5.404;2023-02-01T12:02:30;11.20;99.90
13049;DHT22;6591;51.446;5.404;2023-02-01T12:04:59;11.10;99.90
13049;DHT22;6591;51.446;5.404;2023-02-01T12:10:53;11.20;99.90
13049;DHT22;6591;51.446;5.404;2023-02-01T12:13:47;11.20;99.90
13049;DHT22;6591;51.446;5.404;2023-02-01T12:19:42;11.20;99.90
13049;DHT22;6591;51.446;5.404;2023-02-01T12:26:00;11.10;99.90
13049;DHT22;6591;51.446;5.404;2023-02-01T12:28:44;11.10;99.90
13049;DHT22;6591;51.446;5.404;2023-02-01T12:46:29;11.00;99.90
13049;DHT22;6591;51.446;5.404;2023-02-01T12:49:11;11.00;99.90
13049;DHT22;6591;51.446;5.404;2023-02-01T12:52:04;11.00;99.90
13049;DHT22;6591;51.446;5.404;2023-02-01T12:54:49;11.00;99.90
13049;DHT22;6591;51.446;5.404;2023-02-01T12:57:30;11.80;99.90
13049;DHT22;6591;51.446;5.404;2023-02-01T13:03:23;11.10;99.90
13049;DHT22;6591;51.446;5.404;2023-02-01T13:06:13;11.10;99.90
13049;DHT22;6591;51.446;5.404;2023-02-01T13:11:54;11.20;99.90
13049;DHT22;6591;51.446;5.404;2023-02-01T13:17:22;11.40;99.90
13049;DHT22;6591;51.446;5.404;2023-02-01T13:22:34;11.30;99.90
13049;DHT22;6591;51.446;5.404;2023-02-01T13:25:29;11.20;99.90
13049;DHT22;6591;51.446;5.404;2023-02-01T13:28:19;11.30;99.90
13049;DHT22;6591;51.446;5.404;2023-02-01T13:40:47;11.30;99.90
13049;DHT22;6591;51.446;5.404;2023-02-01T13:43:28;11.40;99.90
13049;DHT22;6591;51.446;5.404;2023-02-01T13:46:04;13.60;99.90
13049;DHT22;6591;51.446;5.404;2023-02-01T13:51:13;12.80;99.90
13049;DHT22;6591;51.446;5.404;2023-02-01T13:53:47;11.50;99.90
13049;DHT22;6591;51.446;5.404;2023-02-01T13:56:20;11.50;99.90
13049;DHT22;6591;51.446;5.404;2023-02-01T13:58:50;11.50;99.90
13049;DHT22;6591;51.446;5.404;2023-02-01T14:04:01;11.60;99.90
13049;DHT22;6591;51.446;5.404;2023-02-01T14:11:50;11.50;99.90
13049;DHT22;6591;51.446;5.404;2023-02-01T14:19:28;12.30;99.90
13049;DHT22;6591;51.446;5.404;2023-02-01T14:24:53;11.40;99.90
13049;DHT22;6591;51.446;5.404;2023-02-01T14:27:25;12.30;99.90
13049;DHT22;6591;51.446;5.404;2023-02-01T14:30:00;12.30;99.90
13049;DHT22;6591;51.446;5.404;2023-02-01T14:32:39;11.50;99.90
13049;DHT22;6591;51.446;5.404;2023-02-01T14:35:19;11.40;99.90
13049;DHT22;6591;51.446;5.404;2023-02-01T14:37:53;11.30;99.90
13049;DHT22;6591;51.446;5.404;2023-02-01T14:40:28;11.40;99.90
13049;DHT22;6591;51.446;5.404;2023-02-01T14:42:56;11.30;99.90
13049;DHT22;6591;51.446;5.404;2023-02-01T15:01:46;11.20;99.90
13049;DHT22;6591;51.446;5.404;2023-02-01T15:04:19;11.20;99.90
13049;DHT22;6591;51.446;5.404;2023-02-01T15:06:54;11.20;99.90
13049;DHT22;6591;51.446;5.404;2023-02-01T15:12:13;11.10;99.90
13049;DHT22;6591;51.446;5.404;2023-02-01T15:14:44;11.10;99.90
13049;DHT22;6591;51.446;5.404;2023-02-01T15:20:16;11.10;99.90
13049;DHT22;6591;51.446;5.404;2023-02-01T15:22:55;11.00;99.90
13049;DHT22;6591;51.446;5.404;2023-02-01T15:25:29;11.00;99.90
13049;DHT22;6591;51.446;5.404;2023-02-01T15:28:02;11.00;99.90
13049;DHT22;6591;51.446;5.404;2023-02-01T15:30:32;11.00;99.90
13049;DHT22;6591;51.446;5.404;2023-02-01T15:33:15;13.30;99.90
13049;DHT22;6591;51.446;5.404;2023-02-01T15:35:46;11.00;99.90
13049;DHT22;6591;51.446;5.404;2023-02-01T15:41:00;12.30;99.90
13049;DHT22;6591;51.446;5.404;2023-02-01T15:43:30;11.00;99.90
13049;DHT22;6591;51.446;5.404;2023-02-01T15:46:01;11.00;99.90
13049;DHT22;6591;51.446;5.404;2023-02-01T15:48:38;11.70;99.90
13049;DHT22;6591;51.446;5.404;2023-02-01T15:51:29;11.00;99.90
13049;DHT22;6591;51.446;5.404;2023-02-01T15:54:04;11.00;99.90
13049;DHT22;6591;51.446;5.404;2023-02-01T15:56:38;11.00;99.90
13049;DHT22;6591;51.446;5.404;2023-02-01T15:59:16;11.00;99.90
13049;DHT22;6591;51.446;5.404;2023-02-01T16:01:46;11.90;99.90
13049;DHT22;6591;51.446;5.404;2023-02-01T16:04:23;11.60;99.90
13049;DHT22;6591;51.446;5.404;2023-02-01T16:06:59;10.90;99.90
13049;DHT22;6591;51.446;5.404;2023-02-01T16:09:41;10.90;99.90
13049;DHT22;6591;51.446;5.404;2023-02-01T16:12:29;10.90;99.90
13049;DHT22;6591;51.446;5.404;2023-02-01T16:15:01;12.10;99.90
13049;DHT22;6591;51.446;5.404;2023-02-01T16:17:28;12.90;99.90
13049;DHT22;6591;51.446;5.404;2023-02-01T16:19:55;10.80;99.90
13049;DHT22;6591;51.446;5.404;2023-02-01T16:22:23;12.00;99.90
13049;DHT22;6591;51.446;5.404;2023-02-01T16:24:51;10.70;99.90
13049;DHT22;6591;51.446;5.404;2023-02-01T16:27:18;11.40;99.90
13049;DHT22;6591;51.446;5.404;2023-02-01T16:29:45;10.60;99.90
13049;DHT22;6591;51.446;5.404;2023-02-01T16:32:17;11.90;99.90
13049;DHT22;6591;51.446;5.404;2023-02-01T16:34:47;10.60;99.90
13049;DHT22;6591;51.446;5.404;2023-02-01T16:37:21;10.60;99.90
13049;DHT22;6591;51.446;5.404;2023-02-01T16:39:51;10.70;99.90
13049;DHT22;6591;51.446;5.404;2023-02-01T16:42:18;10.60;99.90
13049;DHT22;6591;51.446;5.404;2023-02-01T16:44:45;10.60;99.90
13049;DHT22;6591;51.446;5.404;2023-02-01T16:47:22;11.10;99.90
13049;DHT22;6591;51.446;5.404;2023-02-01T16:49:50;11.40;99.90
13049;DHT22;6591;51.446;5.404;2023-02-01T16:52:21;10.60;99.90
13049;DHT22;6591;51.446;5.404;2023-02-01T16:54:50;10.70;99.90
13049;DHT22;6591;51.446;5.404;2023-02-01T16:57:19;10.60;99.90
13049;DHT22;6591;51.446;5.404;2023-02-01T16:59:50;11.30;99.90
13049;DHT22;6591;51.446;5.404;2023-02-01T17:02:19;11.10;99.90
13049;DHT22;6591;51.446;5.404;2023-02-01T17:04:47;11.30;99.90
13049;DHT22;6591;51.446;5.404;2023-02-01T17:07:16;10.70;99.90
13049;DHT22;6591;51.446;5.404;2023-02-01T17:09:47;10.70;99.90
13049;DHT22;6591;51.446;5.404;2023-02-01T17:12:25;10.70;99.90
13049;DHT22;6591;51.446;5.404;2023-02-01T17:14:57;10.70;99.90
13049;DHT22;6591;51.446;5.404;2023-02-01T17:17:32;10.70;99.90
13049;DHT22;6591;51.446;5.404;2023-02-01T17:20:06;10.70;99.90
13049;DHT22;6591;51.446;5.404;2023-02-01T17:22:33;10.70;99.90
13049;DHT22;6591;51.446;5.404;2023-02-01T17:25:02;10.70;99.90
13049;DHT22;6591;51.446;5.404;2023-02-01T17:27:32;10.70;99.90
13049;DHT22;6591;51.446;5.404;2023-02-01T17:29:59;11.60;99.90
13049;DHT22;6591;51.446;5.404;2023-02-01T17:32:30;10.70;99.90
13049;DHT22;6591;51.446;5.404;2023-02-01T17:34:57;10.70;99.90
13049;DHT22;6591;51.446;5.404;2023-02-01T17:37:27;12.70;99.90
13049;DHT22;6591;51.446;5.404;2023-02-01T17:39:57;10.60;99.90
13049;DHT22;6591;51.446;5.404;2023-02-01T17:42:27;10.70;99.90
13049;DHT22;6591;51.446;5.404;2023-02-01T17:44:58;10.60;99.90
13049;DHT22;6591;51.446;5.404;2023-02-01T17:47:27;10.70;99.90
13049;DHT22;6591;51.446;5.404;2023-02-01T17:49:54;10.60;99.90
13049;DHT22;6591;51.446;5.404;2023-02-01T17:52:24;10.60;99.90
13049;DHT22;6591;51.446;5.404;2023-02-01T17:54:52;10.60;99.90
13049;DHT22;6591;51.446;5.404;2023-02-01T17:57:20;10.80;99.90
13049;DHT22;6591;51.446;5.404;2023-02-01T17:59:47;10.60;99.90
13049;DHT22;6591;51.446;5.404;2023-02-01T18:02:22;13.20;99.90
13049;DHT22;6591;51.446;5.404;2023-02-01T18:04:51;10.60;99.90
13049;DHT22;6591;51.446;5.404;2023-02-01T18:07:18;11.10;99.90
13049;DHT22;6591;51.446;5.404;2023-02-01T18:09:45;10.60;99.90
13049;DHT22;6591;51.446;5.404;2023-02-01T18:12:18;10.60;99.90
13049;DHT22;6591;51.446;5.404;2023-02-01T18:14:48;11.70;99.90
13049;DHT22;6591;51.446;5.404;2023-02-01T18:17:15;10.70;99.90
13049;DHT22;6591;51.446;5.404;2023-02-01T18:19:42;10.60;99.90
13049;DHT22;6591;51.446;5.404;2023-02-01T18:22:15;10.70;99.90
13049;DHT22;6591;51.446;5.404;2023-02-01T18:24:44;10.70;99.90
13049;DHT22;6591;51.446;5.404;2023-02-01T18:27:11;10.70;99.90
13049;DHT22;6591;51.446;5.404;2023-02-01T18:29:38;10.70;99.90
13049;DHT22;6591;51.446;5.404;2023-02-01T18:32:05;11.20;99.90
13049;DHT22;6591;51.446;5.404;2023-02-01T18:34:34;10.70;99.90
13049;DHT22;6591;51.446;5.404;2023-02-01T18:37:01;12.40;99.90
13049;DHT22;6591;51.446;5.404;2023-02-01T18:39:28;10.70;99.90
13049;DHT22;6591;51.446;5.404;2023-02-01T18:41:56;10.80;99.90
13049;DHT22;6591;51.446;5.404;2023-02-01T18:44:24;10.80;99.90
13049;DHT22;6591;51.446;5.404;2023-02-01T18:46:51;10.70;99.90
13049;DHT22;6591;51.446;5.404;2023-02-01T18:49:18;12.90;99.90
13049;DHT22;6591;51.446;5.404;2023-02-01T18:51:45;10.40;99.90
13049;DHT22;6591;51.446;5.404;2023-02-01T18:54:12;11.90;99.90
13049;DHT22;6591;51.446;5.404;2023-02-01T18:56:39;13.10;99.90
13049;DHT22;6591;51.446;5.404;2023-02-01T18:59:08;13.00;99.90
13049;DHT22;6591;51.446;5.404;2023-02-01T19:01:37;10.80;99.90
13049;DHT22;6591;51.446;5.404;2023-02-01T19:04:04;13.10;99.90
13049;DHT22;6591;51.446;5.404;2023-02-01T19:06:43;10.80;99.90
13049;DHT22;6591;51.446;5.404;2023-02-01T19:09:10;11.20;99.90
13049;DHT22;6591;51.446;5.404;2023-02-01T19:11:37;11.20;99.90
13049;DHT22;6591;51.446;5.404;2023-02-01T19:14:04;10.90;99.90
13049;DHT22;6591;51.446;5.404;2023-02-01T19:16:32;13.00;99.90
13049;DHT22;6591;51.446;5.404;2023-02-01T19:19:01;12.50;99.90
13049;DHT22;6591;51.446;5.404;2023-02-01T19:21:28;12.00;99.90
13049;DHT22;6591;51.446;5.404;2023-02-01T19:23:55;11.70;99.90